Terminal Aerodrome Forecast
Issued by NWS Wilmington, OH

Home | Current Version | Previous Version | Text Only | Print | Product List | Glossary On
Versions: 1 2 3 4 5 6 7 8 9 10 11 12 13 14 15 16 17 18 19 20 21 22 23 24 25 26 27
000
FTUS41 KILN 031457 AAC
TAFCVG
TAF AMD
KCVG 031457Z 0315/0418 19009KT P6SM SCT060
     FM031900 25012G20KT P6SM VCTS BKN040CB
     FM032300 29012KT P6SM BKN050
     FM040100 32008KT P6SM SCT050
     FM041000 VRB03KT P6SM SKC
     FM041500 29005KT P6SM FEW040=

USA.gov is the U.S. government's official web portal to all federal, state and local government web resources and services.